Home > Products > Valid Products > MTR

000
SAUS44 KMAF 011854
MTR6R6
METAR K6R6 011853Z AUTO 34004KT 22/07 A2999 RMK AO1 SLP132 T02220072





000
SAUS44 KMAF 011754
MTR6R6
METAR K6R6 011753Z AUTO 25008KT 20/09 A2999 RMK AO1 SLP136 T02000089
10200 20067 50013





000
SAUS44 KMAF 011706 COR
MTRGDP
SPECI KGDP 011700Z AUTO 08012KT 10SM FEW006 OVC012 05/04 A3012 RMK
AO2 T00500044 $





000
SAUS44 KMAF 011654
MTR6R6
METAR K6R6 011653Z AUTO 25011KT 18/09 A3001 RMK AO1 SLP143 T01780089





000
SAUS44 KMAF 011654
MTR6R6
METAR K6R6 011653Z AUTO 25011KT 18/09 A3001 RMK AO1 SLP143 T01780089





000
SAUS44 KMAF 011554
MTR6R6
METAR K6R6 011553Z AUTO 25008KT 16/09 A2998 RMK AO1 SLP133 T01610094





000
SAUS44 KMAF 011554
MTR6R6
METAR K6R6 011553Z AUTO 25008KT 16/09 A2998 RMK AO1 SLP133 T01610094





000
SAUS44 KMAF 011456 COR
MTRGDP
METAR KGDP 011451Z AUTO 21012KT M1/4SM FG VV001 03/03 A3004 RMK AO2
SLP157 T00330033 53023 $





000
SAUS44 KMAF 011454
MTR6R6
METAR K6R6 011453Z AUTO 23004KT 11/09 A2995 RMK AO1 SLP127 T01110089
51015





000
SAUS44 KMAF 011443 COR
MTRGDP
SPECI KGDP 011437Z AUTO 23012KT 200V260 1/4SM FG VV001 04/03 A3003
RMK AO2 T00390033 $





000
SAUS44 KMAF 011355
MTR6R6
METAR K6R6 011353Z AUTO 24008KT 08/07 A2994 RMK AO1 SLP127 T00830067





000
SAUS44 KMAF 011254
MTR6R6
METAR K6R6 011253Z AUTO 00000KT 07/06 A2993 RMK AO1 SLP121 T00720061





000
SAUS44 KMAF 011154
MTR6R6
METAR K6R6 011153Z AUTO 23003KT 07/07 A2991 RMK AO1 SLP114 70018
T00720067 10111 20072 53003





000
SAUS44 KMAF 011106
MTRGDP
SPECI KGDP 011104Z AUTO 24014KT 1/2SM FG 04/04 A2995 RMK AO2
T00390039 $





000
SAUS44 KMAF 011054
MTR6R6
METAR K6R6 011053Z AUTO 20003KT 08/07 A2989 RMK AO1 SLP110 T00780067





000
SAUS44 KMAF 010954
MTR6R6
METAR K6R6 010953Z AUTO 25003KT 09/08 A2990 RMK AO1 SLP110 T00890078





000
SAUS44 KMAF 010854
MTR6R6
METAR K6R6 010853Z AUTO 00000KT 09/09 A2990 RMK AO1 SLP110 T00940089
58001





000
SAUS44 KMAF 010755
MTR6R6
METAR K6R6 010753Z AUTO 27005KT 11/10 A2990 RMK AO1 SLP111 T01060100





000
SAUS44 KMAF 010704 COR
MTRGDP
SPECI KGDP 010701Z AUTO 24014KT 1/4SM FG VV001 04/04 A2993 RMK AO2
T00440039 $





000
SAUS44 KMAF 010704 COR
MTRGDP
SPECI KGDP 010701Z AUTO 24014KT 1/4SM FG VV001 04/04 A2993 RMK AO2
T00440039 $





000
SAUS44 KMAF 010654
MTR6R6
METAR K6R6 010653Z AUTO 25006KT 11/11 A2991 RMK AO1 SLP114 T01110111





000
SAUS44 KMAF 010654
MTR6R6
METAR K6R6 010653Z AUTO 25006KT 11/11 A2991 RMK AO1 SLP114 T01110111





000
SAUS44 KMAF 010554
MTR6R6
METAR K6R6 010553Z AUTO 00000KT 11/10 A2990 RMK AO1 SLP111 60009
T01110100 10122 20111 401220083 51007





000
SAUS44 KMAF 010554
MTR6R6
METAR K6R6 010553Z AUTO 00000KT 11/10 A2990 RMK AO1 SLP111 60009
T01110100 10122 20111 401220083 51007





000
SAUS44 KMAF 010454
MTR6R6
METAR K6R6 010453Z AUTO 09008KT 12/11 A2989 RMK AO1 SLP109 P0009
T01170111





000
SAUS44 KMAF 010454
MTR6R6
METAR K6R6 010453Z AUTO 09008KT 12/11 A2989 RMK AO1 SLP109 P0009
T01170111





000
SAUS44 KMAF 010354
MTR6R6
METAR K6R6 010353Z AUTO 30004KT 12/12 A2994 RMK AO1 SLP123 T01170117





000
SAUS44 KMAF 010354
MTR6R6
METAR K6R6 010353Z AUTO 30004KT 12/12 A2994 RMK AO1 SLP123 T01170117





000
SAUS44 KMAF 010254
MTR6R6
METAR K6R6 010253Z AUTO 03004KT 12/12 A2988 RMK AO1 SLP104 T01170117
50006





000
SAUS44 KMAF 010254
MTR6R6
METAR K6R6 010253Z AUTO 03004KT 12/12 A2988 RMK AO1 SLP104 T01170117
50006





000
SAUS44 KMAF 010154
MTR6R6
METAR K6R6 010153Z AUTO 33003KT 12/12 A2989 RMK AO1 SLP106 T01170117





000
SAUS44 KMAF 010154
MTR6R6
METAR K6R6 010153Z AUTO 33003KT 12/12 A2989 RMK AO1 SLP106 T01170117





000
SAUS44 KMAF 010054
MTR6R6
METAR K6R6 010053Z AUTO 12003KT 12/11 A2987 RMK AO1 SLP101 T01220111





000
SAUS44 KMAF 010054
MTR6R6
METAR K6R6 010053Z AUTO 12003KT 12/11 A2987 RMK AO1 SLP101 T01220111





000
SAUS44 KMAF 312354
MTR6R6
METAR K6R6 312353Z AUTO 14008KT 12/11 A2986 RMK AO1 SLP097 T01220111
10122 20100





000
SAUS44 KMAF 312255
MTR6R6
METAR K6R6 312253Z AUTO 07004KT 12/11 A2985 RMK AO1 SLP096 T01170111





000
SAUS44 KMAF 312154
MTR6R6
METAR K6R6 312153Z AUTO 06004KT 12/11 A2988 RMK AO1 SLP102 T01170111





000
SAUS44 KMAF 312154
MTR6R6
METAR K6R6 312153Z AUTO 06004KT 12/11 A2988 RMK AO1 SLP102 T01170111





000
SAUS44 KMAF 312054
MTR6R6
METAR K6R6 312053Z AUTO 08005KT 11/11 A2988 RMK AO1 SLP107 T01110111
56033





000
SAUS44 KMAF 311954
MTR6R6
METAR K6R6 311953Z AUTO 09005KT 11/11 A2991 RMK AO1 SLP115 T01060106





000
SAUS44 KMAF 311854
MTR6R6
METAR K6R6 311853Z AUTO 11007KT 11/10 A2995 RMK AO1 SLP129 T01060100





000
SAUS44 KMAF 311754
MTR6R6
METAR K6R6 311753Z AUTO 12006KT 10/09 A2999 RMK AO1 SLP142 60009
T01000094 10100 20083 50000





000
SAUS44 KMAF 311659 COR
MTR6R6
METAR K6R6 311653Z AUTO 13008KT 09/09 A3000 RMK AO1 SLP146 T00940089





000
SAUS44 KMAF 311554
MTR6R6
METAR K6R6 311553Z AUTO 14005KT 09/09 A3000 RMK AO1 SLP145 T00940089





000
SAUS44 KMAF 311454
MTR6R6
METAR K6R6 311453Z AUTO 13010KT 09/08 A2999 RMK AO1 SLP142 60009
T00890083 56012





000
SAUS44 KMAF 311405
MTRGDP
SPECI KGDP 311404Z AUTO 08005KT 3/4SM BR VV003 03/03 A2996 RMK AO2
T00280028





000
SAUS44 KMAF 311354
MTR6R6
METAR K6R6 311353Z AUTO 11008KT 09/08 A3000 RMK AO1 SLP148 P0002
T00890083





000
SAUS44 KMAF 311305
MTRGDP
SPECI KGDP 311304Z AUTO 09005KT 2SM BR OVC003 03/03 A2995 RMK AO2
VIS 3/4V5 T00280028





000
SAUS44 KMAF 311254
MTR6R6
METAR K6R6 311253Z AUTO 09007KT 08/08 A3001 RMK AO1 SLP148 P0007
T00830078





000
SAUS44 KMAF 311154
MTR6R6
METAR K6R6 311153Z AUTO 10005KT 08/08 A3003 RMK AO1 SLP155 P0014
60050 70053 T00830078 10100 20083 56015





000
SAUS44 KMAF 311054
MTR6R6
METAR K6R6 311053Z AUTO 12008KT 08/08 A3004 RMK AO1 SLP158 P0006
T00830078





000
SAUS44 KMAF 310954
MTR6R6
METAR K6R6 310953Z AUTO 11010KT 09/08 A3004 RMK AO1 SLP160 P0011
T00890078





000
SAUS44 KMAF 310905
MTRGDP
SPECI KGDP 310904Z AUTO 05021KT 1/4SM -RA FG VV004 02/02 A2998 RMK
AO2 PK WND 05028/0857 UPE0856RAB0856 P0000 T00170017





000
SAUS44 KMAF 310855
MTR6R6
METAR K6R6 310853Z AUTO 11014G18KT 09/08 A3007 RMK AO1 SLP171 P0008
60019 T00890078 56020





000
SAUS44 KMAF 310754
MTR6R6
METAR K6R6 310753Z AUTO 10014KT 09/08 A3008 RMK AO1 SLP172 P0005
T00940078





000
SAUS44 KMAF 310654
MTR6R6
METAR K6R6 310653Z AUTO 09011KT 09/08 A3009 RMK AO1 SLP178 P0006
T00940078





000
SAUS44 KMAF 310638 COR
MTRGDP
SPECI KGDP 310633Z AUTO 06016KT 1 3/4SM UP BR OVC009 01/01 A3012 RMK
AO2 RAE13UPB13 P0002 T00110011





000
SAUS44 KMAF 310554
MTR6R6
METAR K6R6 310553Z AUTO 08007KT 09/08 A3013 RMK AO1 SLP191 P0003
60003 T00940078 10111 20094 401330094 58010





000
SAUS44 KMAF 310454
MTR6R6
METAR K6R6 310453Z AUTO 10009KT 11/06 A3016 RMK AO1 SLP199 T01060061





000
SAUS44 KMAF 310354
MTR6R6
METAR K6R6 310353Z AUTO 09007KT 11/05 A3017 RMK AO1 SLP204 T01110050





000
SAUS44 KMAF 310254
MTR6R6
METAR K6R6 310253Z AUTO 10008KT 11/05 A3017 RMK AO1 SLP203 T01110050
55008





000
SAUS44 KMAF 310154
MTR6R6
METAR K6R6 310153Z AUTO 08009KT 11/04 A3015 RMK AO1 PRESRR SLP198
T01110039





000
SAUS44 KMAF 310054
MTR6R6
METAR K6R6 310053Z AUTO 08009KT 11/04 A3016 RMK AO1 SLP199 T01110039





000
SAUS44 KMAF 310008 COR
MTRGDP
SPECI KGDP 310002Z AUTO 06029KT M1/4SM -FZRA FG VV002 00/00 A3010
RMK AO2 PK WND 06030/0001 P0001 I1000 T00000000





000
SAUS44 KMAF 310007 COR
MTRGDP
SPECI KGDP 310002Z AUTO 06029KT M1/4SM -FZRA FG VV002 00/00 A3010
RMK AO2 PK WND 06030/0001 P0001 I1000 T00000000





000
SAUS44 KMAF 310006 COR
MTRGDP
SPECI KGDP 310002Z AUTO 06029KT M1/4SM -FZRA FG VV002 00/00 A3010
RMK AO2 PK WND 06030/0001 P0001 I1000 T00000000





000
SAUS44 KMAF 310005
MTRGDP
SPECI KGDP 310002Z AUTO 06029KT M1/4SM -FZRA FG VV002 00/00 A3010
RMK AO2 PK WND 06030/0001 P0001 I1000 T00000000





000
SAUS44 KMAF 302354
MTR6R6
METAR K6R6 302353Z AUTO 08005KT 11/04 A3019 RMK AO1 SLP211 T01110044
10111 20100 55010





000
SAUS44 KMAF 302254
MTR6R6
METAR K6R6 302253Z AUTO 07011KT 11/04 A3019 RMK AO1 SLP210 T01110044





000
SAUS44 KMAF 302154
MTR6R6
METAR K6R6 302153Z AUTO 09009KT 11/06 A3022 RMK AO1 SLP219 T01060056





000
SAUS44 KMAF 302054
MTR6R6
METAR K6R6 302053Z AUTO 08008KT 11/05 A3022 RMK AO1 SLP221 T01060050
56034





000
SAUS44 KMAF 301954
MTR6R6
METAR K6R6 301953Z AUTO 11008KT 11/03 A3025 RMK AO1 SLP230 T01110033





000
SAUS44 KMAF 301855
MTR6R6
METAR K6R6 301853Z AUTO 10009KT 11/03 A3029 RMK AO1 SLP242 T01060028





000
SAUS44 KMAF 301810 COR
MTRGDP
SPECI KGDP 301801Z AUTO 07031G42KT 3/4SM BR BKN002 OVC013 00/M01
A3025 RMK AO2 PK WND 05042/1754 VIS 1/2V1 1/4 T00001006





000
SAUS44 KMAF 301809 COR
MTRGDP
SPECI KGDP 301801Z AUTO 07031G42KT 3/4SM BR BKN002 OVC013 00/M01
A3025 RMK AO2 PK WND 05042/1754 VIS 1/2V1 1/4 T00001006





000
SAUS44 KMAF 301808 COR
MTRGDP
SPECI KGDP 301801Z AUTO 07031G42KT 3/4SM BR BKN002 OVC013 00/M01
A3025 RMK AO2 PK WND 05042/1754 VIS 1/2V1 1/4 T00001006





000
SAUS44 KMAF 301806 COR
MTRGDP
SPECI KGDP 301801Z AUTO 07031G42KT 3/4SM BR BKN002 OVC013 00/M01
A3025 RMK AO2 PK WND 05042/1754 VIS 1/2V1 1/4 T00001006





000
SAUS44 KMAF 301805 COR
MTRGDP
SPECI KGDP 301801Z AUTO 07031G42KT 3/4SM BR BKN002 OVC013 00/M01
A3025 RMK AO2 PK WND 05042/1754 VIS 1/2V1 1/4 T00001006





000
SAUS44 KMAF 301754
MTR6R6
METAR K6R6 301753Z AUTO 08010KT 11/01 A3033 RMK AO1 SLP257 T01110006
10111 20094 58015





000
SAUS44 KMAF 301701 COR
MTRGDP
SPECI KGDP 301656Z AUTO 05035KT 2SM BR OVC002 M01/M01 A3023 RMK AO2
PK WND 05039/1654 T10061011 $





000
SAUS44 KMAF 301654
MTR6R6
METAR K6R6 301653Z AUTO 07010KT 11/01 A3036 RMK AO1 SLP267 T01060006





000
SAUS44 KMAF 301556 COR
MTRGDP
SPECI KGDP 301554Z AUTO 06039KT 1 1/2SM BR FEW003 SCT012 OVC060
M01/M02 A3022 RMK AO2 PK WND 06043/1552 VIS 1/2V5 T10061017 $





000
SAUS44 KMAF 301554
MTR6R6
METAR K6R6 301553Z AUTO 05010KT 10/00 A3037 RMK AO1 SLP268 T01000000





000
SAUS44 KMAF 301521 COR
MTRGDP
SPECI KGDP 301517Z AUTO 05035G41KT 7SM FEW004 OVC060 M01/M02 A3025
RMK AO2 PK WND 05042/1459 FZRAE14 P0000 I1000 T10061017 $





000
SAUS44 KMAF 301520 COR
MTRGDP
SPECI KGDP 301517Z AUTO 05035G41KT 7SM FEW004 OVC060 M01/M02 A3025
RMK AO2 PK WND 05042/1459 FZRAE14 P0000 I1000 T10061017 $





000
SAUS44 KMAF 301518 COR
MTRGDP
SPECI KGDP 301517Z AUTO 05035G41KT 7SM FEW004 OVC060 M01/M02 A3025
RMK AO2 PK WND 05042/1459 FZRAE14 P0000 I1000 T10061017 $





000
SAUS44 KMAF 301517
MTRGDP
SPECI KGDP 301517Z AUTO 05035G41KT 7SM FEW004 OVC060 M01/M02 A3025
RMK AO2 PK WND 05042/1459 FZRAE14 P0000 I1000 T10061017 $





000
SAUS44 KMAF 301454
MTR6R6
METAR K6R6 301453Z AUTO 04009KT 09/00 A3037 RMK AO1 SLP271 T00940000
51012





000
SAUS44 KMAF 301354
MTR6R6
METAR K6R6 301353Z AUTO 04007KT 09/00 A3037 RMK AO1 SLP268 T00940000





000
SAUS44 KMAF 301254
MTR6R6
METAR K6R6 301253Z AUTO 04007KT 09/00 A3036 RMK AO1 SLP262 T00940000





000
SAUS44 KMAF 301155
MTR6R6
METAR K6R6 301153Z AUTO 05012KT 10/00 A3034 RMK AO1 SLP253 T01000000
10133 20100 56015





000
SAUS44 KMAF 301054
MTR6R6
METAR K6R6 301053Z AUTO 04013KT 10/M01 A3035 RMK AO1 SLP255
T01001006





000
SAUS44 KMAF 300954
MTR6R6
METAR K6R6 300953Z AUTO 04011KT 11/M01 A3036 RMK AO1 SLP259
T01111006





000
SAUS44 KMAF 300854
MTR6R6
METAR K6R6 300853Z AUTO 04011KT 12/00 A3038 RMK AO1 SLP266 T01170000
55005





000
SAUS44 KMAF 300754
MTR6R6
METAR K6R6 300753Z AUTO 03011KT 12/01 A3038 RMK AO1 SLP265 T01220011





000
SAUS44 KMAF 300654
MTR6R6
METAR K6R6 300653Z AUTO 03011KT 13/02 A3039 RMK AO1 SLP268 T01330017





000
SAUS44 KMAF 300555
MTR6R6
METAR K6R6 300553Z AUTO 03011KT 13/02 A3040 RMK AO1 SLP271 T01330022
10222 20133 402500106 52017





000
SAUS44 KMAF 300454
MTR6R6
METAR K6R6 300453Z AUTO 02012KT 14/03 A3038 RMK AO1 SLP268 T01390028





000
SAUS44 KMAF 300354
MTR6R6
METAR K6R6 300353Z AUTO 04015G23KT 15/03 A3036 RMK AO1 SLP263
T01500028





000
SAUS44 KMAF 300254
MTR6R6
METAR K6R6 300253Z AUTO 04013KT 16/03 A3035 RMK AO1 PK WND
03028/0229 SLP257 T01610028 51034





000
SAUS44 KMAF 300154
MTR6R6
METAR K6R6 300153Z AUTO 04012KT 17/03 A3032 RMK AO1 SLP250 T01720028





000
SAUS44 KMAF 300054
MTR6R6
METAR K6R6 300053Z AUTO 02012KT 19/03 A3028 RMK AO1 SLP236 T01890033





000
SAUS44 KMAF 292354
MTR6R6
METAR K6R6 292353Z AUTO 03014KT 22/04 A3024 RMK AO1 SLP218 T02220044
10250 20222 53011





000
SAUS44 KMAF 292254
MTR6R6
METAR K6R6 292253Z AUTO 04013KT 24/04 A3021 RMK AO1 SLP207 T02440044





000
SAUS44 KMAF 292154
MTR6R6
METAR K6R6 292153Z AUTO 04012G19KT 24/05 A3021 RMK AO1 SLP205
T02440050





000
SAUS44 KMAF 292154
MTR6R6
METAR K6R6 292153Z AUTO 04012G19KT 24/05 A3021 RMK AO1 SLP205
T02440050





000
SAUS44 KMAF 292054
MTR6R6
METAR K6R6 292053Z AUTO 02011KT 24/05 A3020 RMK AO1 SLP203 T02390050
56011





000
SAUS44 KMAF 291955
MTR6R6
METAR K6R6 291953Z AUTO 04013KT 24/06 A3021 RMK AO1 SLP205 T02390056





    US Dept of Commerce
    National Oceanic and Atmospheric Administration
    National Weather Service
    1325 East West Highway
    Silver Spring, MD 20910
    Page Author: NWS Internet Services Team
Disclaimer
Information Quality
Credits
Glossary
Privacy Policy
Freedom of Information Act (FOIA)
About Us
Career Opportunities